createdAt,value
2022-12-18T00:02:00.296Z,21.49
2022-12-18T00:04:01.788Z,21.47
2022-12-18T00:06:03.218Z,21.43
2022-12-18T00:08:04.545Z,21.40
2022-12-18T00:10:10.760Z,21.37
2022-12-18T00:14:22.872Z,21.28
2022-12-18T00:16:24.192Z,21.21
2022-12-18T00:18:25.515Z,21.14
2022-12-18T00:20:26.846Z,21.08
2022-12-18T00:22:28.141Z,21.00
2022-12-18T00:24:29.428Z,20.93
2022-12-18T00:26:30.731Z,20.84
2022-12-18T00:28:32.033Z,20.77
2022-12-18T00:30:33.324Z,20.73
2022-12-18T00:32:34.620Z,20.67
2022-12-18T00:34:35.944Z,20.63
2022-12-18T00:36:37.275Z,20.58
2022-12-18T00:38:38.576Z,20.53
2022-12-18T00:40:39.875Z,20.51
2022-12-18T00:42:56.493Z,20.50
2022-12-18T00:44:57.785Z,20.52
2022-12-18T00:46:59.078Z,20.56
2022-12-18T00:49:00.381Z,20.60
2022-12-18T00:51:01.667Z,20.66
2022-12-18T00:53:03.008Z,20.72
2022-12-18T00:55:06.481Z,20.80
2022-12-18T00:57:08.067Z,20.86
2022-12-18T00:59:09.451Z,20.95
2022-12-18T01:01:10.754Z,21.05
2022-12-18T01:03:12.159Z,21.13
2022-12-18T01:05:13.484Z,21.17
2022-12-18T01:07:14.815Z,21.22
2022-12-18T01:09:16.138Z,21.26
2022-12-18T01:11:17.482Z,21.25
2022-12-18T01:13:18.763Z,21.28
2022-12-18T01:15:20.051Z,21.35
2022-12-18T01:17:21.339Z,21.33
2022-12-18T01:19:22.627Z,21.32
2022-12-18T01:21:24.003Z,21.29
2022-12-18T01:23:28.119Z,21.29
2022-12-18T01:25:29.515Z,21.29
2022-12-18T01:27:30.813Z,21.23
2022-12-18T01:29:32.096Z,21.18
2022-12-18T01:31:33.513Z,21.18
2022-12-18T01:33:34.998Z,21.12
2022-12-18T01:35:39.599Z,21.07
2022-12-18T01:37:40.886Z,21.01
2022-12-18T01:39:42.216Z,20.94
2022-12-18T01:42:02.318Z,20.01
2022-12-18T01:44:03.620Z,20.84
2022-12-18T01:46:06.299Z,20.79
2022-12-18T01:48:07.619Z,20.74
2022-12-18T01:50:08.940Z,20.70
2022-12-18T01:52:11.038Z,20.65
2022-12-18T01:54:12.326Z,20.63
2022-12-18T01:56:14.173Z,20.61
2022-12-18T01:58:15.468Z,20.63
2022-12-18T02:00:16.789Z,20.62
2022-12-18T02:02:18.153Z,20.62
2022-12-18T02:04:19.508Z,20.65
2022-12-18T02:06:20.888Z,20.67
2022-12-18T02:08:22.171Z,20.67
2022-12-18T02:10:23.504Z,20.71
2022-12-18T02:12:24.804Z,20.78
2022-12-18T02:14:26.132Z,20.83
2022-12-18T02:16:27.440Z,20.96
2022-12-18T02:18:29.169Z,21.03
2022-12-18T02:20:30.490Z,21.06
2022-12-18T02:22:32.052Z,21.10
2022-12-18T02:24:33.352Z,21.14
2022-12-18T02:26:34.651Z,21.16
2022-12-18T02:28:36.036Z,21.17
2022-12-18T02:30:37.422Z,21.22
2022-12-18T02:32:38.744Z,21.23
2022-12-18T02:34:40.147Z,21.26
2022-12-18T02:36:41.433Z,21.27
2022-12-18T02:38:42.930Z,21.26
2022-12-18T02:40:44.332Z,21.28
2022-12-18T02:42:45.613Z,21.28
2022-12-18T02:44:47.042Z,21.28
2022-12-18T02:46:48.368Z,21.22
2022-12-18T02:48:49.688Z,21.17
2022-12-18T02:50:51.437Z,21.13
2022-12-18T02:52:52.731Z,21.07
2022-12-18T02:54:54.109Z,21.06
2022-12-18T02:56:56.311Z,21.05
2022-12-18T02:58:57.600Z,21.02
2022-12-18T03:00:58.920Z,20.96
2022-12-18T03:03:00.465Z,20.94
2022-12-18T03:05:01.843Z,20.93
2022-12-18T03:07:03.222Z,20.87
2022-12-18T03:09:04.552Z,20.80
2022-12-18T03:11:05.896Z,20.83
2022-12-18T03:13:07.193Z,20.78
2022-12-18T03:15:13.205Z,20.71
2022-12-18T03:17:17.399Z,20.66
2022-12-18T03:19:18.729Z,20.67
2022-12-18T03:21:20.369Z,20.67
2022-12-18T03:23:26.092Z,20.72
2022-12-18T03:25:27.809Z,20.76
2022-12-18T03:27:29.189Z,20.81
2022-12-18T03:29:30.476Z,20.87
2022-12-18T03:31:31.806Z,20.90
2022-12-18T03:33:33.132Z,21.00
2022-12-18T03:35:34.425Z,21.08
2022-12-18T03:37:35.735Z,21.14
2022-12-18T03:39:37.063Z,21.19
2022-12-18T03:41:38.413Z,21.21
2022-12-18T03:43:40.057Z,21.26
2022-12-18T03:45:41.627Z,21.29
2022-12-18T03:47:42.978Z,21.33
2022-12-18T03:49:44.252Z,21.35
2022-12-18T03:51:45.568Z,21.34
2022-12-18T03:53:46.868Z,21.33
2022-12-18T03:55:48.154Z,21.31
2022-12-18T03:57:49.494Z,21.30
2022-12-18T03:59:50.960Z,21.25
2022-12-18T04:01:52.377Z,21.25
2022-12-18T04:03:53.760Z,21.23
2022-12-18T04:05:55.088Z,21.19
2022-12-18T04:07:56.381Z,21.14
2022-12-18T04:09:57.694Z,21.07
2022-12-18T04:11:59.014Z,21.02
2022-12-18T04:14:01.952Z,20.97
2022-12-18T04:16:06.124Z,20.93
2022-12-18T04:18:07.443Z,20.87
2022-12-18T04:20:08.720Z,20.82
2022-12-18T04:22:10.152Z,20.73
2022-12-18T04:24:11.663Z,20.65
2022-12-18T04:26:12.984Z,20.58
2022-12-18T04:28:14.345Z,20.55
2022-12-18T04:30:15.655Z,20.54
2022-12-18T04:32:16.981Z,20.56
2022-12-18T04:34:18.304Z,20.62
2022-12-18T04:36:19.632Z,20.64
2022-12-18T04:38:20.958Z,20.68
2022-12-18T04:40:22.310Z,20.76
2022-12-18T04:42:23.601Z,20.81
2022-12-18T04:44:24.899Z,20.86
2022-12-18T04:46:26.250Z,20.94
2022-12-18T04:48:27.639Z,21.02
2022-12-18T04:50:28.923Z,21.08
2022-12-18T04:52:33.296Z,21.13
2022-12-18T04:54:34.588Z,21.16
2022-12-18T04:56:35.900Z,21.23
2022-12-18T04:58:37.256Z,21.22
2022-12-18T05:00:38.544Z,21.26
2022-12-18T05:02:39.929Z,21.30
2022-12-18T05:04:41.340Z,21.32
2022-12-18T05:06:42.653Z,21.32
2022-12-18T05:08:43.942Z,21.35
2022-12-18T05:10:45.278Z,21.34
2022-12-18T05:13:01.414Z,21.33
2022-12-18T05:15:05.853Z,21.29
2022-12-18T05:17:07.148Z,21.24
2022-12-18T05:19:08.472Z,21.21
2022-12-18T05:21:09.784Z,21.20
2022-12-18T05:23:11.070Z,21.14
2022-12-18T05:25:12.385Z,21.10
2022-12-18T05:27:13.752Z,20.57
2022-12-18T05:29:15.068Z,20.98
2022-12-18T05:31:16.388Z,20.90
2022-12-18T05:33:17.744Z,20.79
2022-12-18T05:35:19.072Z,20.72
2022-12-18T05:37:20.355Z,20.67
2022-12-18T05:39:21.635Z,20.61
2022-12-18T05:41:22.919Z,20.56
2022-12-18T05:43:24.217Z,20.50
2022-12-18T05:45:25.544Z,20.49
2022-12-18T05:47:26.854Z,20.48
2022-12-18T05:49:28.188Z,20.49
2022-12-18T05:51:29.493Z,20.51
2022-12-18T05:53:30.816Z,20.59
2022-12-18T05:55:32.140Z,20.68
2022-12-18T05:57:33.448Z,20.74
2022-12-18T05:59:34.896Z,20.85
2022-12-18T06:01:36.350Z,20.91
2022-12-18T06:03:37.827Z,21.03
2022-12-18T06:05:39.180Z,21.09
2022-12-18T06:07:40.487Z,21.16
2022-12-18T06:09:41.768Z,21.22
2022-12-18T06:11:43.051Z,21.27
2022-12-18T06:13:44.375Z,21.29
2022-12-18T06:15:45.692Z,21.33
2022-12-18T06:17:47.079Z,21.27
2022-12-18T06:19:48.369Z,21.25
2022-12-18T06:21:50.283Z,21.18
2022-12-18T06:23:51.569Z,21.10
2022-12-18T06:25:52.870Z,20.98
2022-12-18T06:27:54.195Z,20.92
2022-12-18T06:29:55.484Z,20.88
2022-12-18T06:31:56.878Z,20.84
2022-12-18T06:33:58.252Z,20.79
2022-12-18T06:36:01.264Z,20.80
2022-12-18T06:38:02.705Z,20.76
2022-12-18T06:40:04.050Z,20.72
2022-12-18T06:42:05.362Z,20.75
2022-12-18T06:44:07.646Z,20.74
2022-12-18T06:46:09.000Z,20.74
2022-12-18T06:48:10.408Z,20.78
2022-12-18T06:50:11.732Z,20.82
2022-12-18T06:52:13.013Z,20.85
2022-12-18T06:54:14.305Z,20.87
2022-12-18T06:56:15.605Z,20.87
2022-12-18T06:58:16.896Z,20.91
2022-12-18T07:00:19.126Z,20.93
2022-12-18T07:02:20.599Z,20.98
2022-12-18T07:04:21.995Z,20.95
2022-12-18T07:06:23.323Z,20.97
2022-12-18T07:08:24.873Z,20.98
2022-12-18T07:10:26.209Z,20.92
2022-12-18T07:12:27.496Z,20.85
2022-12-18T07:14:28.788Z,20.77
2022-12-18T07:16:31.287Z,20.68
2022-12-18T07:18:32.658Z,20.58
2022-12-18T07:20:33.956Z,20.55
2022-12-18T07:22:35.252Z,20.57
2022-12-18T07:24:36.673Z,20.59
2022-12-18T07:26:37.961Z,20.62
2022-12-18T07:28:39.288Z,20.66
2022-12-18T07:30:40.581Z,20.74
2022-12-18T07:32:43.518Z,20.77
2022-12-18T07:34:45.001Z,20.81
2022-12-18T07:36:46.343Z,20.88
2022-12-18T07:38:47.630Z,20.96
2022-12-18T07:40:48.962Z,21.06
2022-12-18T07:42:50.334Z,21.18
2022-12-18T07:44:51.656Z,21.20
2022-12-18T07:46:52.948Z,21.19
2022-12-18T07:48:54.245Z,21.16
2022-12-18T07:50:55.536Z,21.21
2022-12-18T07:52:56.856Z,21.26
2022-12-18T07:54:58.167Z,21.30
2022-12-18T07:56:59.451Z,21.30
2022-12-18T07:59:03.767Z,21.33
2022-12-18T08:01:05.453Z,21.31
2022-12-18T08:03:07.734Z,21.32
2022-12-18T08:05:09.032Z,21.25
2022-12-18T08:07:10.456Z,21.26
2022-12-18T08:09:11.746Z,21.25
2022-12-18T08:11:13.068Z,21.16
2022-12-18T08:13:14.389Z,21.09
2022-12-18T08:15:15.713Z,21.06
2022-12-18T08:17:17.033Z,21.00
2022-12-18T08:19:18.351Z,20.93
2022-12-18T08:21:20.759Z,20.83
2022-12-18T08:23:22.829Z,20.79
2022-12-18T08:25:24.215Z,20.72
2022-12-18T08:27:29.881Z,20.68
2022-12-18T08:29:32.851Z,20.61
2022-12-18T08:31:40.158Z,20.57
2022-12-18T08:33:41.828Z,20.53
2022-12-18T08:35:45.984Z,20.54
2022-12-18T08:37:47.553Z,20.67
2022-12-18T08:39:48.856Z,20.53
2022-12-18T08:42:10.566Z,20.53
2022-12-18T08:44:30.550Z,20.75
2022-12-18T08:46:31.881Z,20.63
2022-12-18T08:48:33.386Z,20.63
2022-12-18T08:50:34.668Z,20.68
2022-12-18T08:52:36.019Z,20.76
2022-12-18T08:54:37.328Z,20.83
2022-12-18T08:56:38.659Z,20.93
2022-12-18T08:58:40.009Z,21.02
2022-12-18T09:00:41.346Z,21.09
2022-12-18T09:02:42.722Z,21.11
2022-12-18T09:04:45.601Z,21.15
2022-12-18T09:06:50.980Z,21.15
2022-12-18T09:08:52.325Z,21.20
2022-12-18T09:10:56.371Z,21.19
2022-12-18T09:12:57.691Z,21.20
2022-12-18T09:14:59.020Z,21.20
2022-12-18T09:17:00.374Z,21.23
2022-12-18T09:19:02.040Z,21.22
2022-12-18T09:21:03.405Z,21.23
2022-12-18T09:23:04.756Z,21.24
2022-12-18T09:25:08.873Z,21.21
2022-12-18T09:27:10.394Z,21.18
2022-12-18T09:29:11.712Z,21.16
2022-12-18T09:31:16.138Z,21.13
2022-12-18T09:33:17.540Z,21.10
2022-12-18T09:35:18.845Z,21.07
2022-12-18T09:37:20.140Z,21.03
2022-12-18T09:39:24.178Z,20.96
2022-12-18T09:41:28.254Z,20.92
2022-12-18T09:43:29.590Z,20.87
2022-12-18T09:45:30.878Z,20.85
2022-12-18T09:47:32.200Z,20.83
2022-12-18T09:49:33.536Z,20.82
2022-12-18T09:51:34.820Z,20.74
2022-12-18T09:53:36.119Z,20.70
2022-12-18T09:55:38.090Z,20.66
2022-12-18T09:57:39.470Z,20.61
2022-12-18T09:59:40.867Z,20.58
2022-12-18T10:01:44.644Z,20.54
2022-12-18T10:03:49.941Z,20.55
2022-12-18T10:05:51.960Z,20.58
2022-12-18T10:07:53.252Z,20.58
2022-12-18T10:09:54.550Z,20.61
2022-12-18T10:11:56.009Z,20.61
2022-12-18T10:13:57.504Z,20.63
2022-12-18T10:15:58.863Z,20.67
2022-12-18T10:18:00.664Z,20.72
2022-12-18T10:20:02.005Z,18.14
2022-12-18T10:22:03.656Z,15.51
2022-12-18T10:24:04.989Z,15.40
2022-12-18T10:26:06.704Z,18.67
2022-12-18T10:28:07.999Z,20.61
2022-12-18T10:30:09.292Z,21.36
2022-12-18T10:32:10.583Z,21.69
2022-12-18T10:34:11.876Z,21.62
2022-12-18T10:36:13.230Z,22.00
2022-12-18T10:38:17.408Z,21.58
2022-12-18T10:40:22.532Z,21.29
2022-12-18T10:42:24.181Z,21.24
2022-12-18T10:44:28.289Z,21.25
2022-12-18T10:46:29.684Z,21.65
2022-12-18T10:48:31.024Z,21.79
2022-12-18T10:51:01.873Z,21.90
2022-12-18T10:52:53.748Z,21.66
2022-12-18T10:54:55.123Z,21.72
2022-12-18T10:56:56.421Z,21.87
2022-12-18T10:58:57.749Z,21.96
2022-12-18T11:00:59.073Z,22.00
2022-12-18T11:03:00.613Z,22.09
2022-12-18T11:05:02.061Z,22.12
2022-12-18T11:07:06.569Z,22.12
2022-12-18T11:09:13.191Z,22.12
2022-12-18T11:11:14.700Z,22.08
2022-12-18T11:13:15.996Z,22.12
2022-12-18T11:15:17.338Z,22.12
2022-12-18T11:17:26.627Z,22.11
2022-12-18T11:19:28.301Z,22.08
2022-12-18T11:21:29.579Z,22.02
2022-12-18T11:23:30.929Z,21.94
2022-12-18T11:25:34.619Z,21.85
2022-12-18T11:27:36.720Z,21.77
2022-12-18T11:29:43.242Z,21.55
2022-12-18T11:31:47.718Z,21.18
2022-12-18T11:34:19.782Z,20.98
2022-12-18T11:36:11.399Z,20.88
2022-12-18T11:38:12.743Z,20.76
2022-12-18T11:40:14.023Z,20.68
2022-12-18T11:42:15.312Z,20.58
2022-12-18T11:44:16.604Z,20.54
2022-12-18T11:46:20.053Z,20.47
2022-12-18T11:48:22.614Z,20.40
2022-12-18T11:50:24.055Z,20.35
2022-12-18T11:52:25.428Z,20.35
2022-12-18T11:54:26.788Z,20.83
2022-12-18T11:56:28.480Z,21.50
2022-12-18T11:58:31.734Z,21.81
2022-12-18T12:00:33.152Z,21.84
2022-12-18T12:02:34.629Z,21.91
2022-12-18T12:04:36.098Z,21.99
2022-12-18T12:06:37.518Z,22.11
2022-12-18T12:08:38.855Z,22.20
2022-12-18T12:10:40.153Z,22.17
2022-12-18T12:12:48.926Z,22.23
2022-12-18T12:14:50.523Z,22.26
2022-12-18T12:16:51.848Z,22.29
2022-12-18T12:18:53.519Z,22.31
2022-12-18T12:20:57.657Z,22.29
2022-12-18T12:22:58.952Z,22.38
2022-12-18T12:25:00.260Z,22.32
2022-12-18T12:27:01.561Z,22.29
2022-12-18T12:29:04.804Z,22.29
2022-12-18T12:31:06.181Z,22.23
2022-12-18T12:33:07.546Z,22.19
2022-12-18T12:35:09.976Z,22.12
2022-12-18T12:37:11.513Z,22.43
2022-12-18T12:39:13.693Z,22.61
2022-12-18T12:41:35.330Z,22.26
2022-12-18T12:43:42.327Z,21.99
2022-12-18T12:45:47.921Z,21.88
2022-12-18T12:47:49.325Z,21.94
2022-12-18T12:49:51.651Z,21.37
2022-12-18T12:51:53.240Z,21.06
2022-12-18T12:53:54.799Z,20.77
2022-12-18T12:55:56.328Z,20.87
2022-12-18T12:57:57.711Z,21.27
2022-12-18T13:00:02.138Z,20.22
2022-12-18T13:02:03.703Z,21.57
2022-12-18T13:04:05.610Z,21.75
2022-12-18T13:06:06.948Z,22.25
2022-12-18T13:08:08.384Z,22.35
2022-12-18T13:10:13.397Z,21.74
2022-12-18T13:12:37.265Z,21.77
2022-12-18T13:14:38.855Z,22.10
2022-12-18T13:16:40.145Z,22.13
2022-12-18T13:18:41.692Z,22.12
2022-12-18T13:20:47.902Z,21.94
2022-12-18T13:22:54.404Z,21.70
2022-12-18T13:24:55.684Z,21.47
2022-12-18T13:26:58.622Z,21.73
2022-12-18T13:29:00.218Z,22.30
2022-12-18T13:31:01.809Z,22.63
2022-12-18T13:33:03.099Z,22.49
2022-12-18T13:35:04.400Z,22.71
2022-12-18T13:37:05.707Z,22.80
2022-12-18T13:39:07.020Z,22.88
2022-12-18T13:41:08.776Z,22.73
2022-12-18T13:43:13.513Z,22.33
2022-12-18T13:45:17.544Z,21.93
2022-12-18T13:47:18.851Z,22.24
2022-12-18T13:49:20.229Z,22.22
2022-12-18T13:51:21.580Z,22.12
2022-12-18T13:53:23.117Z,22.11
2022-12-18T13:55:25.277Z,22.08
2022-12-18T13:57:26.894Z,22.02
2022-12-18T13:59:28.380Z,21.97
2022-12-18T14:01:29.751Z,21.92
2022-12-18T14:03:31.619Z,22.00
2022-12-18T14:05:33.241Z,22.04
2022-12-18T14:07:37.987Z,21.98
2022-12-18T14:09:44.574Z,21.79
2022-12-18T14:11:45.869Z,21.30
2022-12-18T14:13:47.336Z,21.03
2022-12-18T14:15:49.848Z,20.86
2022-12-18T14:17:51.226Z,20.78
2022-12-18T14:19:52.672Z,20.75
2022-12-18T14:21:56.865Z,20.72
2022-12-18T14:23:58.205Z,20.73
2022-12-18T14:26:05.186Z,20.77
2022-12-18T14:28:11.445Z,20.82
2022-12-18T14:30:12.774Z,20.90
2022-12-18T14:32:17.716Z,20.96
2022-12-18T14:34:20.306Z,21.04
2022-12-18T14:36:21.875Z,21.14
2022-12-18T14:38:26.284Z,21.20
2022-12-18T14:40:27.574Z,21.25
2022-12-18T14:42:29.266Z,21.34
2022-12-18T14:44:44.199Z,21.33
2022-12-18T14:46:51.808Z,21.29
2022-12-18T14:48:53.158Z,21.23
2022-12-18T14:50:54.447Z,21.19
2022-12-18T14:52:55.853Z,21.14
2022-12-18T14:54:57.182Z,21.07
2022-12-18T14:56:58.584Z,21.04
2022-12-18T14:58:59.958Z,21.07
2022-12-18T15:01:01.277Z,21.06
2022-12-18T15:03:02.757Z,21.09
2022-12-18T15:05:08.440Z,21.08
2022-12-18T15:07:17.535Z,20.20
2022-12-18T15:09:21.027Z,21.09
2022-12-18T15:11:22.352Z,21.12
2022-12-18T15:13:23.850Z,21.13
2022-12-18T15:15:25.143Z,21.14
2022-12-18T15:17:26.802Z,21.13
2022-12-18T15:19:28.283Z,21.20
2022-12-18T15:21:38.047Z,21.21
2022-12-18T15:23:39.626Z,21.28
2022-12-18T15:25:41.236Z,21.53
2022-12-18T15:27:42.519Z,21.74
2022-12-18T15:29:43.882Z,21.82
2022-12-18T15:31:46.460Z,21.88
2022-12-18T15:33:51.380Z,22.09
2022-12-18T15:35:52.737Z,22.08
2022-12-18T15:37:54.052Z,22.22
2022-12-18T15:39:55.521Z,22.25
2022-12-18T15:42:15.629Z,22.30
2022-12-18T15:44:16.926Z,22.29
2022-12-18T15:46:18.341Z,22.19
2022-12-18T15:48:19.792Z,22.18
2022-12-18T15:50:21.088Z,22.09
2022-12-18T15:52:29.848Z,22.01
2022-12-18T15:55:00.547Z,21.96
2022-12-18T15:57:20.585Z,22.05
2022-12-18T15:59:21.919Z,21.85
2022-12-18T16:01:23.320Z,21.78
2022-12-18T16:03:24.790Z,21.80
2022-12-18T16:05:27.576Z,21.77
2022-12-18T16:07:30.765Z,21.68
2022-12-18T16:09:33.124Z,21.66
2022-12-18T16:11:41.760Z,21.67
2022-12-18T16:13:43.465Z,21.65
2022-12-18T16:15:45.076Z,21.63
2022-12-18T16:17:46.516Z,21.35
2022-12-18T16:19:51.384Z,20.98
2022-12-18T16:21:52.712Z,17.57
2022-12-18T16:23:54.012Z,18.75
2022-12-18T16:25:58.215Z,19.92
2022-12-18T16:27:59.592Z,20.61
2022-12-18T16:30:01.015Z,21.05
2022-12-18T16:32:02.416Z,21.33
2022-12-18T16:34:03.715Z,21.52
2022-12-18T16:36:05.008Z,21.87
2022-12-18T16:38:06.573Z,22.13
2022-12-18T16:40:09.815Z,22.17
2022-12-18T16:44:51.992Z,22.24
2022-12-18T16:46:53.325Z,22.35
2022-12-18T16:48:54.678Z,22.44
2022-12-18T16:52:57.444Z,22.57
2022-12-18T16:55:14.135Z,22.53
2022-12-18T16:57:15.497Z,22.20
2022-12-18T16:59:16.878Z,22.29
2022-12-18T17:01:19.261Z,22.33
2022-12-18T17:03:20.814Z,22.36
2022-12-18T17:05:22.169Z,22.31
2022-12-18T17:07:26.168Z,22.33
2022-12-18T17:09:30.828Z,22.29
2022-12-18T17:11:32.257Z,22.25
2022-12-18T17:13:36.298Z,22.17
2022-12-18T17:15:37.706Z,22.17
2022-12-18T17:17:39.211Z,21.79
2022-12-18T17:19:40.585Z,21.64
2022-12-18T17:21:41.938Z,21.68
2022-12-18T17:23:44.086Z,21.67
2022-12-18T17:25:45.540Z,21.74
2022-12-18T17:27:46.887Z,21.78
2022-12-18T17:29:49.140Z,21.82
2022-12-18T17:31:50.688Z,21.86
2022-12-18T17:33:55.582Z,21.91
2022-12-18T17:35:56.948Z,21.97
2022-12-18T17:37:58.332Z,21.96
2022-12-18T17:39:59.620Z,21.97
2022-12-18T17:42:01.349Z,22.03
2022-12-18T17:44:02.696Z,22.09
2022-12-18T17:46:04.009Z,22.07
2022-12-18T17:48:05.633Z,22.09
2022-12-18T17:50:06.994Z,22.14
2022-12-18T17:52:08.352Z,22.17
2022-12-18T17:54:12.433Z,22.02
2022-12-18T17:56:13.773Z,21.73
2022-12-18T17:58:15.152Z,21.85
2022-12-18T18:00:19.232Z,22.01
2022-12-18T18:02:23.602Z,22.18
2022-12-18T18:04:25.151Z,22.20
2022-12-18T18:06:26.552Z,22.37
2022-12-18T18:08:27.845Z,22.40
2022-12-18T18:10:29.198Z,22.44
2022-12-18T18:12:51.225Z,22.61
2022-12-18T18:14:52.513Z,22.64
2022-12-18T18:16:57.361Z,22.66
2022-12-18T18:19:08.032Z,22.76
2022-12-18T18:21:09.348Z,22.81
2022-12-18T18:23:11.440Z,22.81
2022-12-18T18:25:12.884Z,22.87
2022-12-18T18:27:15.104Z,22.90
2022-12-18T18:29:16.435Z,22.92
2022-12-18T18:31:18.531Z,22.88
2022-12-18T18:33:19.878Z,22.84
2022-12-18T18:35:52.236Z,22.56
2022-12-18T18:37:45.568Z,22.06
2022-12-18T18:39:46.870Z,22.02
2022-12-18T18:41:51.185Z,22.23
2022-12-18T18:43:52.509Z,22.36
2022-12-18T18:45:53.869Z,22.40
2022-12-18T18:47:55.245Z,22.39
2022-12-18T18:49:56.677Z,22.37
2022-12-18T18:52:01.952Z,22.29
2022-12-18T18:54:03.266Z,22.30
2022-12-18T18:56:50.253Z,22.30
2022-12-18T18:58:25.936Z,22.31
2022-12-18T19:00:36.232Z,22.32
2022-12-18T19:02:37.906Z,21.96
2022-12-18T19:04:44.038Z,22.30
2022-12-18T19:06:49.040Z,22.29
2022-12-18T19:08:50.971Z,22.28
2022-12-18T19:10:57.539Z,22.25
2022-12-18T19:13:17.760Z,22.29
2022-12-18T19:15:19.067Z,22.35
2022-12-18T19:17:23.755Z,22.29
2022-12-18T19:19:29.434Z,22.28
2022-12-18T19:21:34.235Z,22.32
2022-12-18T19:23:36.088Z,21.98
2022-12-18T19:25:40.547Z,21.80
2022-12-18T19:27:45.953Z,22.05
2022-12-18T19:29:47.285Z,22.24
2022-12-18T19:31:48.677Z,22.37
2022-12-18T19:33:50.065Z,22.48
2022-12-18T19:35:51.410Z,22.56
2022-12-18T19:37:52.740Z,22.57
2022-12-18T19:39:55.368Z,21.82
2022-12-18T19:41:56.896Z,22.65
2022-12-18T19:43:58.512Z,22.70
2022-12-18T19:45:59.897Z,22.71
2022-12-18T19:48:04.465Z,22.72
2022-12-18T19:50:08.711Z,22.73
2022-12-18T19:52:10.113Z,22.72
2022-12-18T19:54:17.172Z,22.68
2022-12-18T19:56:18.903Z,22.63
2022-12-18T19:58:20.234Z,22.58
2022-12-18T20:00:24.243Z,22.60
2022-12-18T20:02:25.890Z,22.61
2022-12-18T20:04:33.135Z,22.57
2022-12-18T20:06:34.547Z,22.55
2022-12-18T20:08:35.893Z,22.53
2022-12-18T20:10:37.183Z,22.49
2022-12-18T20:12:38.482Z,22.55
2022-12-18T20:14:39.814Z,22.55
2022-12-18T20:16:41.361Z,22.49
2022-12-18T20:18:42.756Z,22.45
2022-12-18T20:20:44.042Z,22.36
2022-12-18T20:22:45.603Z,22.36
2022-12-18T20:24:46.891Z,22.37
2022-12-18T20:26:50.864Z,22.35
2022-12-18T20:28:55.242Z,22.32
2022-12-18T20:30:56.533Z,22.28
2022-12-18T20:32:57.895Z,22.25
2022-12-18T20:34:59.259Z,22.20
2022-12-18T20:37:10.188Z,22.01
2022-12-18T20:39:13.514Z,21.67
2022-12-18T20:41:15.824Z,21.53
2022-12-18T20:43:17.585Z,21.71
2022-12-18T20:45:21.656Z,21.99
2022-12-18T20:47:23.033Z,22.34
2022-12-18T20:49:24.504Z,22.41
2022-12-18T20:51:27.994Z,22.47
2022-12-18T20:53:38.696Z,22.58
2022-12-18T20:55:43.238Z,22.70
2022-12-18T20:57:48.217Z,22.73
2022-12-18T20:59:49.515Z,22.84
2022-12-18T21:01:52.203Z,22.83
2022-12-18T21:03:53.691Z,22.86
2022-12-18T21:05:54.994Z,22.90
2022-12-18T21:07:56.280Z,22.92
2022-12-18T21:09:57.614Z,22.96
2022-12-18T21:12:17.700Z,22.95
2022-12-18T21:14:19.339Z,22.69
2022-12-18T21:16:20.667Z,22.39
2022-12-18T21:18:22.005Z,22.27
2022-12-18T21:20:23.426Z,22.49
2022-12-18T21:22:25.048Z,22.65
2022-12-18T21:24:26.402Z,22.82
2022-12-18T21:26:31.116Z,22.79
2022-12-18T21:28:35.520Z,22.75
2022-12-18T21:30:37.108Z,22.70
2022-12-18T21:32:38.507Z,22.62
2022-12-18T21:34:43.374Z,22.62
2022-12-18T21:36:51.816Z,22.59
2022-12-18T21:38:53.141Z,22.55
2022-12-18T21:40:55.827Z,22.51
2022-12-18T21:43:17.828Z,22.49
2022-12-18T21:45:19.316Z,22.51
2022-12-18T21:47:22.413Z,22.43
2022-12-18T21:49:24.508Z,22.42
2022-12-18T21:51:25.792Z,22.43
2022-12-18T21:53:27.080Z,22.39
2022-12-18T21:55:31.056Z,22.43
2022-12-18T21:57:32.336Z,22.44
2022-12-18T21:59:34.044Z,22.47
2022-12-18T22:01:37.779Z,22.48
2022-12-18T22:03:39.357Z,22.51
2022-12-18T22:05:40.751Z,22.53
2022-12-18T22:07:42.035Z,22.53
2022-12-18T22:09:43.487Z,22.46
2022-12-18T22:11:44.830Z,22.61
2022-12-18T22:13:46.127Z,22.59
2022-12-18T22:15:47.533Z,22.57
2022-12-18T22:17:48.858Z,22.59
2022-12-18T22:19:50.150Z,22.70
2022-12-18T22:21:51.634Z,22.61
2022-12-18T22:23:54.116Z,22.56
2022-12-18T22:25:55.439Z,22.55
2022-12-18T22:28:15.275Z,22.57
2022-12-18T22:30:17.451Z,22.62
2022-12-18T22:32:30.865Z,22.65
2022-12-18T22:34:36.424Z,22.77
2022-12-18T22:36:38.067Z,20.17
2022-12-18T22:38:39.349Z,16.63
2022-12-18T22:40:40.641Z,18.16
2022-12-18T22:42:42.103Z,20.04
2022-12-18T22:44:43.427Z,20.83
2022-12-18T22:46:44.928Z,21.17
2022-12-18T22:48:50.193Z,21.32
2022-12-18T22:50:51.776Z,21.43
2022-12-18T22:52:58.061Z,21.49
2022-12-18T22:54:59.390Z,21.54
2022-12-18T22:57:00.699Z,21.57
2022-12-18T22:59:01.991Z,21.62
2022-12-18T23:01:03.333Z,21.64
2022-12-18T23:03:04.959Z,21.68
2022-12-18T23:05:08.605Z,21.71
2022-12-18T23:07:09.930Z,21.73
2022-12-18T23:09:12.740Z,21.74
2022-12-18T23:11:14.136Z,21.71
2022-12-18T23:13:17.356Z,21.70
2022-12-18T23:15:18.909Z,21.69
2022-12-18T23:17:24.886Z,21.67
2022-12-18T23:19:26.275Z,21.64
2022-12-18T23:21:27.587Z,21.64
2022-12-18T23:23:30.351Z,21.60
2022-12-18T23:25:31.652Z,21.55
2022-12-18T23:27:32.965Z,21.48
2022-12-18T23:29:34.252Z,21.44
2022-12-18T23:31:35.660Z,21.40
2022-12-18T23:33:36.982Z,21.37
2022-12-18T23:35:38.590Z,21.32
2022-12-18T23:37:58.680Z,21.28
2022-12-18T23:40:00.871Z,21.22
2022-12-18T23:42:02.178Z,21.18
2022-12-18T23:44:03.500Z,21.14
2022-12-18T23:46:04.867Z,21.11
2022-12-18T23:48:06.227Z,21.07
2022-12-18T23:50:07.621Z,21.05
2022-12-18T23:52:09.308Z,21.02
2022-12-18T23:54:10.644Z,21.01
2022-12-18T23:56:11.986Z,20.99
2022-12-18T23:58:13.293Z,20.99
